sensor_id;sensor_type;location;lat;lon;timestamp;temperature;humidity
22456;DHT22;11395;53.204;6.502;2023-07-31T00:00:54;24.10;88.90
22456;DHT22;11395;53.204;6.502;2023-07-31T00:03:21;24.10;88.40
22456;DHT22;11395;53.204;6.502;2023-07-31T00:05:47;24.10;88.50
22456;DHT22;11395;53.204;6.502;2023-07-31T00:08:13;24.10;88.30
22456;DHT22;11395;53.204;6.502;2023-07-31T00:10:39;24.10;88.60
22456;DHT22;11395;53.204;6.502;2023-07-31T00:13:05;24.10;88.70
22456;DHT22;11395;53.204;6.502;2023-07-31T00:15:31;24.10;88.50
22456;DHT22;11395;53.204;6.502;2023-07-31T00:17:57;24.10;88.60
22456;DHT22;11395;53.204;6.502;2023-07-31T00:20:24;24.10;88.40
22456;DHT22;11395;53.204;6.502;2023-07-31T00:22:50;24.60;88.80
22456;DHT22;11395;53.204;6.502;2023-07-31T00:25:16;24.10;88.60
22456;DHT22;11395;53.204;6.502;2023-07-31T00:27:42;24.10;88.40
22456;DHT22;11395;53.204;6.502;2023-07-31T00:30:11;24.10;88.60
22456;DHT22;11395;53.204;6.502;2023-07-31T00:32:37;24.00;88.50
22456;DHT22;11395;53.204;6.502;2023-07-31T00:35:04;24.00;88.30
22456;DHT22;11395;53.204;6.502;2023-07-31T00:37:31;24.00;88.40
22456;DHT22;11395;53.204;6.502;2023-07-31T00:39:57;24.00;88.30
22456;DHT22;11395;53.204;6.502;2023-07-31T00:42:24;24.00;88.50
22456;DHT22;11395;53.204;6.502;2023-07-31T00:44:50;23.90;88.50
22456;DHT22;11395;53.204;6.502;2023-07-31T00:47:16;23.90;88.80
22456;DHT22;11395;53.204;6.502;2023-07-31T00:49:42;23.90;89.00
22456;DHT22;11395;53.204;6.502;2023-07-31T00:52:10;23.90;88.50
22456;DHT22;11395;53.204;6.502;2023-07-31T00:54:36;23.90;89.40
22456;DHT22;11395;53.204;6.502;2023-07-31T00:57:02;23.90;89.10
22456;DHT22;11395;53.204;6.502;2023-07-31T00:59:29;23.90;88.70
22456;DHT22;11395;53.204;6.502;2023-07-31T01:01:55;23.90;88.90
22456;DHT22;11395;53.204;6.502;2023-07-31T01:04:21;23.90;89.00
22456;DHT22;11395;53.204;6.502;2023-07-31T01:06:56;23.90;89.10
22456;DHT22;11395;53.204;6.502;2023-07-31T01:12:07;23.90;89.30
22456;DHT22;11395;53.204;6.502;2023-07-31T01:14:35;24.00;89.50
22456;DHT22;11395;53.204;6.502;2023-07-31T01:17:01;24.20;89.10
22456;DHT22;11395;53.204;6.502;2023-07-31T01:19:27;23.80;89.00
22456;DHT22;11395;53.204;6.502;2023-07-31T01:22:16;23.80;89.00
22456;DHT22;11395;53.204;6.502;2023-07-31T01:27:44;23.80;89.80
22456;DHT22;11395;53.204;6.502;2023-07-31T01:30:16;23.80;90.20
22456;DHT22;11395;53.204;6.502;2023-07-31T01:32:43;23.80;90.20
22456;DHT22;11395;53.204;6.502;2023-07-31T01:35:13;23.80;89.60
22456;DHT22;11395;53.204;6.502;2023-07-31T01:37:40;23.80;89.10
22456;DHT22;11395;53.204;6.502;2023-07-31T01:40:08;23.80;88.80
22456;DHT22;11395;53.204;6.502;2023-07-31T01:42:34;23.80;89.00
22456;DHT22;11395;53.204;6.502;2023-07-31T01:45:00;23.80;89.00
22456;DHT22;11395;53.204;6.502;2023-07-31T01:47:26;23.80;88.90
22456;DHT22;11395;53.204;6.502;2023-07-31T01:49:52;23.80;89.00
22456;DHT22;11395;53.204;6.502;2023-07-31T01:52:19;23.80;88.90
22456;DHT22;11395;53.204;6.502;2023-07-31T01:54:45;23.80;88.90
22456;DHT22;11395;53.204;6.502;2023-07-31T01:57:11;23.80;89.50
22456;DHT22;11395;53.204;6.502;2023-07-31T01:59:37;23.80;89.10
22456;DHT22;11395;53.204;6.502;2023-07-31T02:02:03;23.80;89.30
22456;DHT22;11395;53.204;6.502;2023-07-31T02:04:30;23.80;88.80
22456;DHT22;11395;53.204;6.502;2023-07-31T02:06:56;23.80;89.20
22456;DHT22;11395;53.204;6.502;2023-07-31T02:09:22;23.70;88.90
22456;DHT22;11395;53.204;6.502;2023-07-31T02:11:48;23.70;89.10
22456;DHT22;11395;53.204;6.502;2023-07-31T02:14:15;23.70;89.40
22456;DHT22;11395;53.204;6.502;2023-07-31T02:16:41;23.70;89.10
22456;DHT22;11395;53.204;6.502;2023-07-31T02:19:08;23.70;89.20
22456;DHT22;11395;53.204;6.502;2023-07-31T02:21:34;23.70;89.20
22456;DHT22;11395;53.204;6.502;2023-07-31T02:24:00;23.70;89.10
22456;DHT22;11395;53.204;6.502;2023-07-31T02:26:27;23.70;89.50
22456;DHT22;11395;53.204;6.502;2023-07-31T02:28:53;23.70;89.50
22456;DHT22;11395;53.204;6.502;2023-07-31T02:31:19;23.70;88.90
22456;DHT22;11395;53.204;6.502;2023-07-31T02:33:45;23.70;89.30
22456;DHT22;11395;53.204;6.502;2023-07-31T02:36:11;23.70;89.20
22456;DHT22;11395;53.204;6.502;2023-07-31T02:38:37;23.70;89.50
22456;DHT22;11395;53.204;6.502;2023-07-31T02:41:04;23.70;89.40
22456;DHT22;11395;53.204;6.502;2023-07-31T02:43:30;23.70;89.20
22456;DHT22;11395;53.204;6.502;2023-07-31T02:45:56;23.60;89.20
22456;DHT22;11395;53.204;6.502;2023-07-31T02:48:23;23.70;89.20
22456;DHT22;11395;53.204;6.502;2023-07-31T02:50:50;23.80;89.50
22456;DHT22;11395;53.204;6.502;2023-07-31T02:53:16;23.60;89.20
22456;DHT22;11395;53.204;6.502;2023-07-31T02:55:42;23.70;89.20
22456;DHT22;11395;53.204;6.502;2023-07-31T02:58:08;23.60;89.20
22456;DHT22;11395;53.204;6.502;2023-07-31T03:00:35;23.60;89.40
22456;DHT22;11395;53.204;6.502;2023-07-31T03:03:01;23.60;89.40
22456;DHT22;11395;53.204;6.502;2023-07-31T03:05:27;23.60;89.40
22456;DHT22;11395;53.204;6.502;2023-07-31T03:07:53;23.60;89.40
22456;DHT22;11395;53.204;6.502;2023-07-31T03:10:20;23.60;89.40
22456;DHT22;11395;53.204;6.502;2023-07-31T03:12:49;23.60;89.40
22456;DHT22;11395;53.204;6.502;2023-07-31T03:15:16;23.60;90.40
22456;DHT22;11395;53.204;6.502;2023-07-31T03:17:42;23.60;89.70
22456;DHT22;11395;53.204;6.502;2023-07-31T03:20:08;23.60;89.60
22456;DHT22;11395;53.204;6.502;2023-07-31T03:22:34;23.60;89.30
22456;DHT22;11395;53.204;6.502;2023-07-31T03:25:02;23.60;89.60
22456;DHT22;11395;53.204;6.502;2023-07-31T03:27:28;23.60;90.00
22456;DHT22;11395;53.204;6.502;2023-07-31T03:29:54;23.60;89.40
22456;DHT22;11395;53.204;6.502;2023-07-31T03:32:20;23.60;89.40
22456;DHT22;11395;53.204;6.502;2023-07-31T03:34:47;23.60;89.10
22456;DHT22;11395;53.204;6.502;2023-07-31T03:37:13;23.60;89.70
22456;DHT22;11395;53.204;6.502;2023-07-31T03:39:39;23.50;89.30
22456;DHT22;11395;53.204;6.502;2023-07-31T03:42:06;23.50;89.20
22456;DHT22;11395;53.204;6.502;2023-07-31T03:44:32;23.50;89.60
22456;DHT22;11395;53.204;6.502;2023-07-31T03:46:58;23.50;89.80
22456;DHT22;11395;53.204;6.502;2023-07-31T03:49:24;23.50;89.40
22456;DHT22;11395;53.204;6.502;2023-07-31T03:51:50;23.50;89.50
22456;DHT22;11395;53.204;6.502;2023-07-31T03:54:17;23.60;89.40
22456;DHT22;11395;53.204;6.502;2023-07-31T03:56:43;23.50;89.30
22456;DHT22;11395;53.204;6.502;2023-07-31T03:59:09;23.50;89.20
22456;DHT22;11395;53.204;6.502;2023-07-31T04:01:35;23.40;89.50
22456;DHT22;11395;53.204;6.502;2023-07-31T04:04:01;23.50;89.60
22456;DHT22;11395;53.204;6.502;2023-07-31T04:06:27;23.40;89.20
22456;DHT22;11395;53.204;6.502;2023-07-31T04:08:53;23.50;89.50
22456;DHT22;11395;53.204;6.502;2023-07-31T04:11:19;23.50;89.50
22456;DHT22;11395;53.204;6.502;2023-07-31T04:13:46;23.40;89.40
22456;DHT22;11395;53.204;6.502;2023-07-31T04:16:12;23.50;89.30
22456;DHT22;11395;53.204;6.502;2023-07-31T04:18:38;23.40;89.40
22456;DHT22;11395;53.204;6.502;2023-07-31T04:21:04;23.40;89.50
22456;DHT22;11395;53.204;6.502;2023-07-31T04:23:31;23.40;89.60
22456;DHT22;11395;53.204;6.502;2023-07-31T04:25:57;23.40;89.20
22456;DHT22;11395;53.204;6.502;2023-07-31T04:28:23;23.40;89.40
22456;DHT22;11395;53.204;6.502;2023-07-31T04:30:49;23.40;89.20
22456;DHT22;11395;53.204;6.502;2023-07-31T04:33:15;23.40;89.30
22456;DHT22;11395;53.204;6.502;2023-07-31T04:35:41;23.40;89.50
22456;DHT22;11395;53.204;6.502;2023-07-31T04:38:07;23.40;89.50
22456;DHT22;11395;53.204;6.502;2023-07-31T04:40:34;23.40;89.50
22456;DHT22;11395;53.204;6.502;2023-07-31T04:43:00;23.40;90.10
22456;DHT22;11395;53.204;6.502;2023-07-31T04:45:26;23.40;89.00
22456;DHT22;11395;53.204;6.502;2023-07-31T04:47:52;23.40;88.80
22456;DHT22;11395;53.204;6.502;2023-07-31T04:50:18;23.60;88.50
22456;DHT22;11395;53.204;6.502;2023-07-31T04:52:44;23.60;88.30
22456;DHT22;11395;53.204;6.502;2023-07-31T04:55:10;23.70;88.20
22456;DHT22;11395;53.204;6.502;2023-07-31T04:57:37;23.80;88.10
22456;DHT22;11395;53.204;6.502;2023-07-31T05:00:03;23.90;88.30
22456;DHT22;11395;53.204;6.502;2023-07-31T05:02:29;24.00;88.70
22456;DHT22;11395;53.204;6.502;2023-07-31T05:04:55;24.10;87.50
22456;DHT22;11395;53.204;6.502;2023-07-31T05:07:21;24.20;87.20
22456;DHT22;11395;53.204;6.502;2023-07-31T05:09:47;24.40;86.90
22456;DHT22;11395;53.204;6.502;2023-07-31T05:12:14;24.50;87.20
22456;DHT22;11395;53.204;6.502;2023-07-31T05:14:40;24.60;86.80
22456;DHT22;11395;53.204;6.502;2023-07-31T05:17:06;24.60;86.50
22456;DHT22;11395;53.204;6.502;2023-07-31T05:19:32;24.70;86.20
22456;DHT22;11395;53.204;6.502;2023-07-31T05:21:58;24.80;85.90
22456;DHT22;11395;53.204;6.502;2023-07-31T05:24:24;24.80;85.80
22456;DHT22;11395;53.204;6.502;2023-07-31T05:26:51;24.90;85.80
22456;DHT22;11395;53.204;6.502;2023-07-31T05:29:17;24.90;85.50
22456;DHT22;11395;53.204;6.502;2023-07-31T05:31:43;24.90;85.60
22456;DHT22;11395;53.204;6.502;2023-07-31T05:34:09;25.00;85.50
22456;DHT22;11395;53.204;6.502;2023-07-31T05:36:35;25.10;85.30
22456;DHT22;11395;53.204;6.502;2023-07-31T05:39:01;25.00;84.90
22456;DHT22;11395;53.204;6.502;2023-07-31T05:41:32;25.10;84.70
22456;DHT22;11395;53.204;6.502;2023-07-31T05:43:58;25.10;84.80
22456;DHT22;11395;53.204;6.502;2023-07-31T05:46:24;25.10;84.70
22456;DHT22;11395;53.204;6.502;2023-07-31T05:48:50;25.10;84.70
22456;DHT22;11395;53.204;6.502;2023-07-31T05:51:16;25.20;85.00
22456;DHT22;11395;53.204;6.502;2023-07-31T05:53:43;25.10;84.50
22456;DHT22;11395;53.204;6.502;2023-07-31T05:56:09;25.10;84.60
22456;DHT22;11395;53.204;6.502;2023-07-31T05:58:35;25.10;84.50
22456;DHT22;11395;53.204;6.502;2023-07-31T06:01:01;25.10;84.70
22456;DHT22;11395;53.204;6.502;2023-07-31T06:03:28;25.10;84.50
22456;DHT22;11395;53.204;6.502;2023-07-31T06:05:54;25.20;84.30
22456;DHT22;11395;53.204;6.502;2023-07-31T06:08:20;25.10;84.50
22456;DHT22;11395;53.204;6.502;2023-07-31T06:10:46;25.20;85.20
22456;DHT22;11395;53.204;6.502;2023-07-31T06:13:13;25.20;84.30
22456;DHT22;11395;53.204;6.502;2023-07-31T06:15:39;25.20;84.60
22456;DHT22;11395;53.204;6.502;2023-07-31T06:18:05;25.10;84.60
22456;DHT22;11395;53.204;6.502;2023-07-31T06:20:34;25.40;84.70
22456;DHT22;11395;53.204;6.502;2023-07-31T06:23:00;25.30;84.70
22456;DHT22;11395;53.204;6.502;2023-07-31T06:25:26;25.30;84.70
22456;DHT22;11395;53.204;6.502;2023-07-31T06:27:52;25.10;84.60
22456;DHT22;11395;53.204;6.502;2023-07-31T06:30:19;25.20;84.50
22456;DHT22;11395;53.204;6.502;2023-07-31T06:32:45;25.10;84.50
22456;DHT22;11395;53.204;6.502;2023-07-31T06:35:11;25.10;84.70
22456;DHT22;11395;53.204;6.502;2023-07-31T06:37:37;25.10;84.40
22456;DHT22;11395;53.204;6.502;2023-07-31T06:40:06;25.10;84.50
22456;DHT22;11395;53.204;6.502;2023-07-31T06:42:35;25.10;84.50
22456;DHT22;11395;53.204;6.502;2023-07-31T06:45:02;25.10;84.90
22456;DHT22;11395;53.204;6.502;2023-07-31T06:47:28;25.10;84.70
22456;DHT22;11395;53.204;6.502;2023-07-31T06:49:55;25.10;84.60
22456;DHT22;11395;53.204;6.502;2023-07-31T06:52:22;25.10;85.50
22456;DHT22;11395;53.204;6.502;2023-07-31T06:55:14;25.20;85.00
22456;DHT22;11395;53.204;6.502;2023-07-31T06:57:41;25.10;86.50
22456;DHT22;11395;53.204;6.502;2023-07-31T07:00:08;25.10;84.20
22456;DHT22;11395;53.204;6.502;2023-07-31T07:02:34;25.30;84.40
22456;DHT22;11395;53.204;6.502;2023-07-31T07:05:00;25.20;84.30
22456;DHT22;11395;53.204;6.502;2023-07-31T07:07:26;25.20;84.40
22456;DHT22;11395;53.204;6.502;2023-07-31T07:09:52;25.20;84.50
22456;DHT22;11395;53.204;6.502;2023-07-31T07:12:19;25.20;84.50
22456;DHT22;11395;53.204;6.502;2023-07-31T07:14:45;25.50;84.80
22456;DHT22;11395;53.204;6.502;2023-07-31T07:17:14;25.20;84.10
22456;DHT22;11395;53.204;6.502;2023-07-31T07:19:40;25.50;84.90
22456;DHT22;11395;53.204;6.502;2023-07-31T07:22:08;25.10;84.90
22456;DHT22;11395;53.204;6.502;2023-07-31T07:24:34;25.10;84.20
22456;DHT22;11395;53.204;6.502;2023-07-31T07:27:00;25.10;84.40
22456;DHT22;11395;53.204;6.502;2023-07-31T07:29:26;25.10;84.50
22456;DHT22;11395;53.204;6.502;2023-07-31T07:31:52;25.10;84.70
22456;DHT22;11395;53.204;6.502;2023-07-31T07:34:18;25.10;84.80
22456;DHT22;11395;53.204;6.502;2023-07-31T07:36:45;25.00;84.80
22456;DHT22;11395;53.204;6.502;2023-07-31T07:39:11;25.00;85.00
22456;DHT22;11395;53.204;6.502;2023-07-31T07:41:37;25.00;85.80
22456;DHT22;11395;53.204;6.502;2023-07-31T07:44:04;25.00;84.70
22456;DHT22;11395;53.204;6.502;2023-07-31T07:46:30;25.00;84.80
22456;DHT22;11395;53.204;6.502;2023-07-31T07:48:56;24.90;84.30
22456;DHT22;11395;53.204;6.502;2023-07-31T07:51:22;25.00;84.80
22456;DHT22;11395;53.204;6.502;2023-07-31T07:53:48;25.00;84.90
22456;DHT22;11395;53.204;6.502;2023-07-31T07:56:14;25.00;85.00
22456;DHT22;11395;53.204;6.502;2023-07-31T07:58:40;25.00;85.10
22456;DHT22;11395;53.204;6.502;2023-07-31T08:01:07;24.90;84.80
22456;DHT22;11395;53.204;6.502;2023-07-31T08:03:33;24.90;85.10
22456;DHT22;11395;53.204;6.502;2023-07-31T08:06:00;24.90;85.20
22456;DHT22;11395;53.204;6.502;2023-07-31T08:08:27;24.90;85.00
22456;DHT22;11395;53.204;6.502;2023-07-31T08:10:54;24.90;85.00
22456;DHT22;11395;53.204;6.502;2023-07-31T08:13:20;24.90;85.00
22456;DHT22;11395;53.204;6.502;2023-07-31T08:15:46;24.90;84.80
22456;DHT22;11395;53.204;6.502;2023-07-31T08:18:12;25.10;85.40
22456;DHT22;11395;53.204;6.502;2023-07-31T08:20:38;24.90;85.00
22456;DHT22;11395;53.204;6.502;2023-07-31T08:23:04;25.00;84.50
22456;DHT22;11395;53.204;6.502;2023-07-31T08:25:37;25.10;84.50
22456;DHT22;11395;53.204;6.502;2023-07-31T08:28:04;25.00;84.20
22456;DHT22;11395;53.204;6.502;2023-07-31T08:30:30;25.00;84.70
22456;DHT22;11395;53.204;6.502;2023-07-31T08:32:57;25.20;84.40
22456;DHT22;11395;53.204;6.502;2023-07-31T08:35:24;25.10;84.50
22456;DHT22;11395;53.204;6.502;2023-07-31T08:37:50;25.20;84.50
22456;DHT22;11395;53.204;6.502;2023-07-31T08:40:17;25.20;84.40
22456;DHT22;11395;53.204;6.502;2023-07-31T08:42:48;25.20;84.20
22456;DHT22;11395;53.204;6.502;2023-07-31T08:45:17;25.30;85.20
22456;DHT22;11395;53.204;6.502;2023-07-31T08:47:51;25.30;84.20
22456;DHT22;11395;53.204;6.502;2023-07-31T08:50:19;25.30;85.00
22456;DHT22;11395;53.204;6.502;2023-07-31T08:52:47;25.30;84.30
22456;DHT22;11395;53.204;6.502;2023-07-31T08:55:13;25.50;84.10
22456;DHT22;11395;53.204;6.502;2023-07-31T08:57:39;25.30;83.60
22456;DHT22;11395;53.204;6.502;2023-07-31T09:00:08;25.30;83.80
22456;DHT22;11395;53.204;6.502;2023-07-31T09:02:44;25.30;83.90
22456;DHT22;11395;53.204;6.502;2023-07-31T09:05:11;25.30;85.00
22456;DHT22;11395;53.204;6.502;2023-07-31T09:07:38;25.30;84.40
22456;DHT22;11395;53.204;6.502;2023-07-31T09:10:05;25.30;84.00
22456;DHT22;11395;53.204;6.502;2023-07-31T09:12:32;25.30;83.80
22456;DHT22;11395;53.204;6.502;2023-07-31T09:14:58;25.30;83.90
22456;DHT22;11395;53.204;6.502;2023-07-31T09:17:35;25.20;83.40
22456;DHT22;11395;53.204;6.502;2023-07-31T09:20:20;25.30;85.70
22456;DHT22;11395;53.204;6.502;2023-07-31T09:22:48;25.30;83.90
22456;DHT22;11395;53.204;6.502;2023-07-31T09:25:26;25.20;84.30
22456;DHT22;11395;53.204;6.502;2023-07-31T09:28:06;25.20;82.70
22456;DHT22;11395;53.204;6.502;2023-07-31T09:30:45;25.10;83.80
22456;DHT22;11395;53.204;6.502;2023-07-31T09:33:12;25.20;85.80
22456;DHT22;11395;53.204;6.502;2023-07-31T09:35:39;25.10;84.40
22456;DHT22;11395;53.204;6.502;2023-07-31T09:38:10;25.10;83.80
22456;DHT22;11395;53.204;6.502;2023-07-31T09:40:39;25.00;85.10
22456;DHT22;11395;53.204;6.502;2023-07-31T09:43:07;25.00;84.80
22456;DHT22;11395;53.204;6.502;2023-07-31T09:45:35;25.10;85.20
22456;DHT22;11395;53.204;6.502;2023-07-31T09:48:30;25.00;85.20
22456;DHT22;11395;53.204;6.502;2023-07-31T09:51:04;25.00;86.70
22456;DHT22;11395;53.204;6.502;2023-07-31T09:53:30;25.00;86.20
22456;DHT22;11395;53.204;6.502;2023-07-31T09:55:58;25.00;84.50
22456;DHT22;11395;53.204;6.502;2023-07-31T09:58:28;25.00;85.20
22456;DHT22;11395;53.204;6.502;2023-07-31T10:00:55;25.00;85.50
22456;DHT22;11395;53.204;6.502;2023-07-31T10:03:23;25.10;84.90
22456;DHT22;11395;53.204;6.502;2023-07-31T10:05:50;25.10;84.60
22456;DHT22;11395;53.204;6.502;2023-07-31T10:08:18;25.00;85.00
22456;DHT22;11395;53.204;6.502;2023-07-31T10:10:46;25.00;85.10
22456;DHT22;11395;53.204;6.502;2023-07-31T10:13:12;25.00;84.30
22456;DHT22;11395;53.204;6.502;2023-07-31T10:15:40;25.00;85.00
22456;DHT22;11395;53.204;6.502;2023-07-31T10:18:10;25.10;84.90
22456;DHT22;11395;53.204;6.502;2023-07-31T10:20:37;25.10;85.00
22456;DHT22;11395;53.204;6.502;2023-07-31T10:23:03;25.00;84.70
22456;DHT22;11395;53.204;6.502;2023-07-31T10:25:30;25.00;85.00
22456;DHT22;11395;53.204;6.502;2023-07-31T10:27:58;25.00;84.90
22456;DHT22;11395;53.204;6.502;2023-07-31T10:30:27;25.00;84.70
22456;DHT22;11395;53.204;6.502;2023-07-31T10:32:56;25.00;85.60
22456;DHT22;11395;53.204;6.502;2023-07-31T10:35:22;25.00;85.20
22456;DHT22;11395;53.204;6.502;2023-07-31T10:37:48;25.10;84.90
22456;DHT22;11395;53.204;6.502;2023-07-31T10:40:19;24.90;84.50
22456;DHT22;11395;53.204;6.502;2023-07-31T10:42:51;25.00;85.90
22456;DHT22;11395;53.204;6.502;2023-07-31T10:45:36;25.00;85.50
22456;DHT22;11395;53.204;6.502;2023-07-31T10:48:12;25.00;86.70
22456;DHT22;11395;53.204;6.502;2023-07-31T10:50:49;24.90;86.10
22456;DHT22;11395;53.204;6.502;2023-07-31T10:53:31;24.90;85.10
22456;DHT22;11395;53.204;6.502;2023-07-31T10:56:02;24.90;85.70
22456;DHT22;11395;53.204;6.502;2023-07-31T10:58:29;24.90;86.50
22456;DHT22;11395;53.204;6.502;2023-07-31T11:00:59;24.90;85.10
22456;DHT22;11395;53.204;6.502;2023-07-31T11:03:43;24.90;85.60
22456;DHT22;11395;53.204;6.502;2023-07-31T11:06:10;25.20;84.30
22456;DHT22;11395;53.204;6.502;2023-07-31T11:08:42;25.00;85.70
22456;DHT22;11395;53.204;6.502;2023-07-31T11:11:19;25.00;86.10
22456;DHT22;11395;53.204;6.502;2023-07-31T11:13:54;25.00;85.50
22456;DHT22;11395;53.204;6.502;2023-07-31T11:16:24;25.10;86.10
22456;DHT22;11395;53.204;6.502;2023-07-31T11:18:51;25.00;86.10
22456;DHT22;11395;53.204;6.502;2023-07-31T11:21:21;25.00;85.00
22456;DHT22;11395;53.204;6.502;2023-07-31T11:23:50;25.00;85.60
22456;DHT22;11395;53.204;6.502;2023-07-31T11:26:17;25.10;85.60
22456;DHT22;11395;53.204;6.502;2023-07-31T11:28:47;25.00;85.00
22456;DHT22;11395;53.204;6.502;2023-07-31T11:31:13;25.00;86.10
22456;DHT22;11395;53.204;6.502;2023-07-31T11:33:39;25.00;85.20
22456;DHT22;11395;53.204;6.502;2023-07-31T11:36:06;25.10;85.10
22456;DHT22;11395;53.204;6.502;2023-07-31T11:38:33;25.00;85.00
22456;DHT22;11395;53.204;6.502;2023-07-31T11:41:02;25.00;85.40
22456;DHT22;11395;53.204;6.502;2023-07-31T11:43:30;25.20;85.90
22456;DHT22;11395;53.204;6.502;2023-07-31T11:45:58;25.00;85.40
22456;DHT22;11395;53.204;6.502;2023-07-31T11:48:26;25.00;85.90
22456;DHT22;11395;53.204;6.502;2023-07-31T11:51:01;25.00;85.80
22456;DHT22;11395;53.204;6.502;2023-07-31T11:56:03;24.90;83.60
22456;DHT22;11395;53.204;6.502;2023-07-31T11:58:34;24.90;85.20
22456;DHT22;11395;53.204;6.502;2023-07-31T12:01:01;25.10;85.70
22456;DHT22;11395;53.204;6.502;2023-07-31T12:03:28;25.00;85.30
22456;DHT22;11395;53.204;6.502;2023-07-31T12:05:54;25.00;86.20
22456;DHT22;11395;53.204;6.502;2023-07-31T12:08:21;25.10;85.80
22456;DHT22;11395;53.204;6.502;2023-07-31T12:10:50;25.10;84.90
22456;DHT22;11395;53.204;6.502;2023-07-31T12:13:26;25.10;85.50
22456;DHT22;11395;53.204;6.502;2023-07-31T12:15:56;25.20;86.70
22456;DHT22;11395;53.204;6.502;2023-07-31T12:18:25;25.20;86.70
22456;DHT22;11395;53.204;6.502;2023-07-31T12:20:55;25.10;85.20
22456;DHT22;11395;53.204;6.502;2023-07-31T12:23:26;25.10;85.90
22456;DHT22;11395;53.204;6.502;2023-07-31T12:26:10;25.20;86.20
22456;DHT22;11395;53.204;6.502;2023-07-31T12:31:07;25.10;84.80
22456;DHT22;11395;53.204;6.502;2023-07-31T12:33:34;25.10;85.20
22456;DHT22;11395;53.204;6.502;2023-07-31T12:36:03;25.10;85.60
22456;DHT22;11395;53.204;6.502;2023-07-31T12:38:30;25.20;85.30
22456;DHT22;11395;53.204;6.502;2023-07-31T12:40:56;25.30;84.90
22456;DHT22;11395;53.204;6.502;2023-07-31T12:43:22;25.30;84.50
22456;DHT22;11395;53.204;6.502;2023-07-31T12:45:49;25.30;84.60
22456;DHT22;11395;53.204;6.502;2023-07-31T12:48:15;25.30;84.60
22456;DHT22;11395;53.204;6.502;2023-07-31T12:50:41;25.30;84.40
22456;DHT22;11395;53.204;6.502;2023-07-31T12:53:08;25.30;84.70
22456;DHT22;11395;53.204;6.502;2023-07-31T12:55:34;25.30;84.70
22456;DHT22;11395;53.204;6.502;2023-07-31T12:58:00;25.30;84.60
22456;DHT22;11395;53.204;6.502;2023-07-31T13:00:27;25.30;84.90
22456;DHT22;11395;53.204;6.502;2023-07-31T13:02:53;25.30;84.40
22456;DHT22;11395;53.204;6.502;2023-07-31T13:05:19;25.20;84.50
22456;DHT22;11395;53.204;6.502;2023-07-31T13:07:48;25.20;83.80
22456;DHT22;11395;53.204;6.502;2023-07-31T13:10:15;25.20;85.10
22456;DHT22;11395;53.204;6.502;2023-07-31T13:12:41;25.30;85.00
22456;DHT22;11395;53.204;6.502;2023-07-31T13:15:07;25.30;84.60
22456;DHT22;11395;53.204;6.502;2023-07-31T13:17:35;25.40;84.70
22456;DHT22;11395;53.204;6.502;2023-07-31T13:20:01;25.40;84.80
22456;DHT22;11395;53.204;6.502;2023-07-31T13:22:28;25.40;84.70
22456;DHT22;11395;53.204;6.502;2023-07-31T13:24:54;25.50;85.00
22456;DHT22;11395;53.204;6.502;2023-07-31T13:27:20;25.40;84.80
22456;DHT22;11395;53.204;6.502;2023-07-31T13:29:51;25.50;84.60
22456;DHT22;11395;53.204;6.502;2023-07-31T13:32:18;25.40;86.40
22456;DHT22;11395;53.204;6.502;2023-07-31T13:34:46;25.40;85.10
22456;DHT22;11395;53.204;6.502;2023-07-31T13:37:12;25.40;85.00
22456;DHT22;11395;53.204;6.502;2023-07-31T13:39:39;25.40;85.10
22456;DHT22;11395;53.204;6.502;2023-07-31T13:42:06;25.40;84.90
22456;DHT22;11395;53.204;6.502;2023-07-31T13:44:34;25.50;85.20
22456;DHT22;11395;53.204;6.502;2023-07-31T13:47:01;25.50;85.50
22456;DHT22;11395;53.204;6.502;2023-07-31T13:49:28;25.50;85.00
22456;DHT22;11395;53.204;6.502;2023-07-31T13:51:55;25.60;85.00
22456;DHT22;11395;53.204;6.502;2023-07-31T13:54:23;25.70;84.60
22456;DHT22;11395;53.204;6.502;2023-07-31T13:56:49;25.70;84.70
22456;DHT22;11395;53.204;6.502;2023-07-31T13:59:16;25.70;84.50
22456;DHT22;11395;53.204;6.502;2023-07-31T14:01:45;25.70;84.10
22456;DHT22;11395;53.204;6.502;2023-07-31T14:04:12;25.70;85.40
22456;DHT22;11395;53.204;6.502;2023-07-31T14:06:38;25.70;84.40
22456;DHT22;11395;53.204;6.502;2023-07-31T14:09:04;25.70;84.70
22456;DHT22;11395;53.204;6.502;2023-07-31T14:11:31;25.70;84.90
22456;DHT22;11395;53.204;6.502;2023-07-31T14:13:57;25.70;84.90
22456;DHT22;11395;53.204;6.502;2023-07-31T14:16:24;25.70;84.20
22456;DHT22;11395;53.204;6.502;2023-07-31T14:18:50;25.90;84.50
22456;DHT22;11395;53.204;6.502;2023-07-31T14:21:16;25.70;84.40
22456;DHT22;11395;53.204;6.502;2023-07-31T14:23:45;25.70;85.00
22456;DHT22;11395;53.204;6.502;2023-07-31T14:26:11;25.80;84.60
22456;DHT22;11395;53.204;6.502;2023-07-31T14:28:38;25.70;84.30
22456;DHT22;11395;53.204;6.502;2023-07-31T14:31:04;25.70;84.50
22456;DHT22;11395;53.204;6.502;2023-07-31T14:33:30;25.70;84.50
22456;DHT22;11395;53.204;6.502;2023-07-31T14:35:56;25.80;84.10
22456;DHT22;11395;53.204;6.502;2023-07-31T14:38:23;25.80;84.40
22456;DHT22;11395;53.204;6.502;2023-07-31T14:40:49;25.80;84.10
22456;DHT22;11395;53.204;6.502;2023-07-31T14:43:15;25.80;84.10
22456;DHT22;11395;53.204;6.502;2023-07-31T14:45:41;25.80;84.40
22456;DHT22;11395;53.204;6.502;2023-07-31T14:48:08;25.80;84.00
22456;DHT22;11395;53.204;6.502;2023-07-31T14:50:34;25.80;84.30
22456;DHT22;11395;53.204;6.502;2023-07-31T14:53:00;25.80;84.90
22456;DHT22;11395;53.204;6.502;2023-07-31T14:55:27;25.80;84.30
22456;DHT22;11395;53.204;6.502;2023-07-31T14:57:53;25.50;83.90
22456;DHT22;11395;53.204;6.502;2023-07-31T15:00:19;25.90;84.10
22456;DHT22;11395;53.204;6.502;2023-07-31T15:02:45;25.80;83.80
22456;DHT22;11395;53.204;6.502;2023-07-31T15:05:12;25.70;84.20
22456;DHT22;11395;53.204;6.502;2023-07-31T15:07:38;25.70;84.70
22456;DHT22;11395;53.204;6.502;2023-07-31T15:10:04;25.60;84.50
22456;DHT22;11395;53.204;6.502;2023-07-31T15:12:32;25.60;84.10
22456;DHT22;11395;53.204;6.502;2023-07-31T15:14:58;25.60;85.60
22456;DHT22;11395;53.204;6.502;2023-07-31T15:17:24;25.60;85.00
22456;DHT22;11395;53.204;6.502;2023-07-31T15:19:50;25.50;84.50
22456;DHT22;11395;53.204;6.502;2023-07-31T15:22:16;25.50;84.90
22456;DHT22;11395;53.204;6.502;2023-07-31T15:24:43;25.50;85.30
22456;DHT22;11395;53.204;6.502;2023-07-31T15:27:09;25.70;84.70
22456;DHT22;11395;53.204;6.502;2023-07-31T15:29:35;25.50;84.80
22456;DHT22;11395;53.204;6.502;2023-07-31T15:32:04;25.50;84.90
22456;DHT22;11395;53.204;6.502;2023-07-31T15:34:31;25.50;85.20
22456;DHT22;11395;53.204;6.502;2023-07-31T15:36:57;25.50;85.70
22456;DHT22;11395;53.204;6.502;2023-07-31T15:39:23;25.50;84.90
22456;DHT22;11395;53.204;6.502;2023-07-31T15:41:49;25.80;85.60